createdAt,value
2017-08-16T00:00:39.496Z,20.31
2017-08-16T00:01:39.491Z,20.30
2017-08-16T00:02:39.488Z,20.34
2017-08-16T00:03:39.482Z,20.38
2017-08-16T00:04:39.478Z,20.35
2017-08-16T00:05:39.477Z,20.44
2017-08-16T00:06:39.472Z,20.40
2017-08-16T00:07:39.471Z,20.44
2017-08-16T00:08:39.469Z,20.46
2017-08-16T00:09:39.466Z,20.42
2017-08-16T00:10:39.463Z,20.44
2017-08-16T00:11:39.457Z,20.33
2017-08-16T00:12:39.456Z,20.35
2017-08-16T00:13:39.449Z,20.34
2017-08-16T00:14:39.447Z,20.15
2017-08-16T00:15:39.442Z,20.15
2017-08-16T00:16:39.433Z,20.15
2017-08-16T00:17:39.431Z,20.13
2017-08-16T00:18:39.431Z,20.05
2017-08-16T00:19:39.424Z,20.07
2017-08-16T00:20:39.424Z,20.10
2017-08-16T00:21:39.422Z,20.10
2017-08-16T00:22:39.417Z,20.02
2017-08-16T00:23:39.411Z,19.89
2017-08-16T00:24:39.402Z,19.86
2017-08-16T00:25:39.400Z,19.85
2017-08-16T00:26:39.396Z,19.87
2017-08-16T00:27:39.393Z,19.92
2017-08-16T00:28:39.387Z,19.86
2017-08-16T00:29:39.384Z,19.79
2017-08-16T00:30:39.379Z,19.78
2017-08-16T00:31:39.378Z,19.78
2017-08-16T00:32:39.377Z,19.76
2017-08-16T00:33:39.375Z,19.75
2017-08-16T00:34:39.370Z,19.68
2017-08-16T00:35:39.364Z,19.65
2017-08-16T00:36:39.359Z,19.70
2017-08-16T00:37:39.357Z,19.61
2017-08-16T00:38:39.351Z,19.62
2017-08-16T00:39:39.350Z,19.60
2017-08-16T00:40:39.341Z,19.57
2017-08-16T00:41:39.335Z,19.50
2017-08-16T00:42:39.333Z,19.60
2017-08-16T00:43:39.327Z,19.58
2017-08-16T00:44:39.324Z,19.57
2017-08-16T00:45:39.319Z,19.55
2017-08-16T00:46:39.317Z,19.50
2017-08-16T00:47:39.311Z,19.49
2017-08-16T00:48:39.311Z,19.46
2017-08-16T00:49:39.310Z,19.47
2017-08-16T00:50:39.302Z,19.38
2017-08-16T00:51:39.300Z,19.38
2017-08-16T00:52:39.296Z,19.38
2017-08-16T00:53:39.289Z,19.31
2017-08-16T00:54:39.287Z,19.24
2017-08-16T00:55:39.281Z,19.27
2017-08-16T00:56:39.272Z,19.25
2017-08-16T00:57:39.270Z,19.21
2017-08-16T00:58:39.264Z,19.21
2017-08-16T00:59:39.261Z,19.20
2017-08-16T01:00:39.254Z,19.12
2017-08-16T01:01:39.252Z,19.16
2017-08-16T01:02:39.245Z,19.15
2017-08-16T01:03:39.244Z,19.23
2017-08-16T01:04:39.242Z,19.24
2017-08-16T01:05:39.237Z,19.31
2017-08-16T01:06:39.236Z,19.31
2017-08-16T01:07:39.229Z,19.34
2017-08-16T01:08:39.223Z,19.21
2017-08-16T01:09:39.221Z,19.27
2017-08-16T01:10:39.216Z,19.27
2017-08-16T01:11:39.213Z,19.39
2017-08-16T01:12:39.204Z,19.30
2017-08-16T01:13:39.196Z,19.28
2017-08-16T01:14:39.195Z,19.30
2017-08-16T01:15:39.190Z,19.30
2017-08-16T01:16:39.186Z,19.30
2017-08-16T01:17:39.179Z,19.27
2017-08-16T01:18:39.179Z,19.24
2017-08-16T01:19:39.173Z,19.27
2017-08-16T01:20:39.171Z,19.24
2017-08-16T01:21:39.169Z,19.30
2017-08-16T01:22:39.163Z,19.31
2017-08-16T01:23:39.159Z,19.39
2017-08-16T01:24:39.151Z,19.43
2017-08-16T01:25:39.144Z,19.43
2017-08-16T01:26:39.142Z,19.50
2017-08-16T01:27:39.135Z,19.52
2017-08-16T01:28:39.135Z,19.61
2017-08-16T01:29:39.133Z,19.58
2017-08-16T01:30:39.126Z,19.61
2017-08-16T01:31:39.124Z,19.67
2017-08-16T01:32:39.117Z,19.60
2017-08-16T01:33:39.121Z,19.67
2017-08-16T01:34:39.108Z,19.76
2017-08-16T01:35:39.107Z,19.72
2017-08-16T01:36:39.098Z,19.76
2017-08-16T01:37:39.091Z,19.71
2017-08-16T01:38:39.090Z,19.75
2017-08-16T01:39:39.083Z,19.75
2017-08-16T01:40:39.078Z,19.76
2017-08-16T01:41:39.076Z,19.72
2017-08-16T01:42:39.069Z,19.75
2017-08-16T01:43:39.068Z,19.76
2017-08-16T01:44:39.067Z,19.72
2017-08-16T01:45:39.061Z,19.76
2017-08-16T01:46:39.059Z,19.70
2017-08-16T01:47:39.052Z,19.67
2017-08-16T01:48:39.048Z,19.72
2017-08-16T01:49:39.043Z,19.72
2017-08-16T01:50:39.042Z,19.72
2017-08-16T01:51:39.034Z,19.60
2017-08-16T01:52:39.030Z,19.58
2017-08-16T01:53:39.024Z,19.58
2017-08-16T01:54:39.018Z,19.50
2017-08-16T01:55:39.017Z,19.46
2017-08-16T01:56:39.012Z,19.52
2017-08-16T01:57:39.005Z,19.45
2017-08-16T01:58:39.003Z,19.43
2017-08-16T01:59:38.997Z,19.27
2017-08-16T02:00:38.996Z,19.32
2017-08-16T02:01:38.995Z,19.23
2017-08-16T02:02:38.989Z,19.23
2017-08-16T02:03:38.987Z,19.25
2017-08-16T02:04:38.979Z,19.12
2017-08-16T02:05:38.976Z,19.10
2017-08-16T02:06:38.971Z,18.99
2017-08-16T02:07:38.969Z,19.02
2017-08-16T02:08:38.960Z,18.99
2017-08-16T02:09:38.953Z,18.90
2017-08-16T02:10:38.951Z,18.90
2017-08-16T02:11:38.944Z,18.84
2017-08-16T02:12:38.940Z,18.79
2017-08-16T02:13:38.939Z,18.84
2017-08-16T02:14:38.932Z,18.83
2017-08-16T02:15:38.930Z,18.83
2017-08-16T02:16:38.928Z,18.78
2017-08-16T02:17:38.921Z,18.68
2017-08-16T02:18:38.920Z,18.68
2017-08-16T02:19:38.913Z,18.60
2017-08-16T02:20:38.910Z,18.72
2017-08-16T02:21:38.904Z,18.66
2017-08-16T02:22:38.902Z,18.56
2017-08-16T02:23:38.896Z,18.64
2017-08-16T02:24:38.886Z,18.60
2017-08-16T02:25:38.884Z,18.51
2017-08-16T02:26:38.878Z,18.46
2017-08-16T02:27:38.875Z,18.49
2017-08-16T02:28:38.868Z,18.51
2017-08-16T02:29:38.866Z,18.50
2017-08-16T02:30:38.860Z,18.47
2017-08-16T02:31:38.857Z,18.46
2017-08-16T02:32:38.856Z,18.36
2017-08-16T02:33:38.855Z,18.31
2017-08-16T02:34:38.848Z,18.34
2017-08-16T02:35:38.840Z,18.32
2017-08-16T02:36:38.836Z,18.32
2017-08-16T02:37:38.831Z,18.19
2017-08-16T02:38:38.827Z,18.19
2017-08-16T02:39:38.821Z,18.14
2017-08-16T02:40:38.812Z,18.10
2017-08-16T02:41:38.810Z,17.99
2017-08-16T02:42:38.803Z,17.92
2017-08-16T02:43:38.801Z,17.91
2017-08-16T02:44:38.794Z,17.89
2017-08-16T02:45:38.789Z,17.86
2017-08-16T02:46:38.786Z,17.84
2017-08-16T02:47:38.779Z,17.86
2017-08-16T02:48:38.776Z,17.76
2017-08-16T02:49:38.774Z,17.84
2017-08-16T02:50:38.768Z,17.79
2017-08-16T02:51:38.766Z,17.71
2017-08-16T02:52:38.757Z,17.74
2017-08-16T02:53:38.755Z,17.76
2017-08-16T02:54:38.749Z,17.68
2017-08-16T02:55:38.745Z,17.60
2017-08-16T02:56:38.737Z,17.65
2017-08-16T02:57:38.728Z,17.57
2017-08-16T02:58:38.726Z,17.51
2017-08-16T02:59:38.720Z,17.53
2017-08-16T03:00:38.717Z,17.58
2017-08-16T03:01:38.709Z,17.47
2017-08-16T03:02:38.704Z,17.45
2017-08-16T03:03:38.700Z,17.45
2017-08-16T03:04:38.699Z,17.45
2017-08-16T03:05:38.692Z,17.45
2017-08-16T03:06:38.689Z,17.36
2017-08-16T03:07:38.680Z,17.38
2017-08-16T03:08:38.677Z,17.27
2017-08-16T03:09:38.671Z,17.24
2017-08-16T03:10:38.667Z,17.25
2017-08-16T03:11:38.661Z,17.22
2017-08-16T03:12:38.651Z,17.25
2017-08-16T03:13:38.647Z,17.32
2017-08-16T03:14:38.641Z,17.22
2017-08-16T03:15:38.638Z,17.22
2017-08-16T03:16:38.631Z,17.22
2017-08-16T03:17:38.624Z,17.21
2017-08-16T03:18:38.621Z,17.27
2017-08-16T03:19:38.615Z,17.24
2017-08-16T03:20:38.612Z,17.15
2017-08-16T03:21:38.608Z,17.12
2017-08-16T03:22:38.602Z,17.17
2017-08-16T03:23:38.599Z,17.09
2017-08-16T03:24:38.592Z,17.15
2017-08-16T03:25:38.594Z,17.06
2017-08-16T03:26:38.580Z,17.20
2017-08-16T03:27:38.576Z,17.22
2017-08-16T03:28:38.567Z,17.25
2017-08-16T03:29:38.558Z,17.38
2017-08-16T03:30:38.557Z,17.51
2017-08-16T03:31:38.548Z,17.47
2017-08-16T03:32:38.547Z,17.63
2017-08-16T03:33:38.543Z,17.62
2017-08-16T03:34:38.536Z,17.60
2017-08-16T03:35:38.532Z,17.68
2017-08-16T03:36:38.521Z,17.76
2017-08-16T03:37:38.514Z,17.80
2017-08-16T03:38:38.512Z,17.81
2017-08-16T03:39:38.504Z,17.73
2017-08-16T03:40:38.500Z,17.80
2017-08-16T03:41:38.493Z,17.84
2017-08-16T03:42:38.490Z,17.94
2017-08-16T03:43:38.483Z,17.99
2017-08-16T03:44:38.481Z,18.01
2017-08-16T03:45:38.476Z,18.01
2017-08-16T03:46:38.471Z,18.09
2017-08-16T03:47:38.467Z,18.10
2017-08-16T03:48:38.460Z,18.13
2017-08-16T03:49:38.456Z,18.14
2017-08-16T03:50:38.451Z,18.19
2017-08-16T03:51:38.444Z,18.25
2017-08-16T03:52:38.432Z,18.28
2017-08-16T03:53:38.431Z,18.35
2017-08-16T03:54:38.423Z,18.36
2017-08-16T03:55:38.420Z,18.36
2017-08-16T03:56:38.413Z,18.50
2017-08-16T03:57:38.409Z,18.47
2017-08-16T03:58:38.405Z,18.51
2017-08-16T03:59:38.402Z,18.47
2017-08-16T04:00:38.398Z,18.53
2017-08-16T04:01:38.391Z,18.56
2017-08-16T04:02:38.388Z,18.64
2017-08-16T04:03:38.380Z,18.60
2017-08-16T04:04:38.375Z,18.59
2017-08-16T04:05:38.372Z,18.51
2017-08-16T04:06:38.365Z,18.69
2017-08-16T04:07:38.362Z,18.68
2017-08-16T04:08:38.352Z,18.74
2017-08-16T04:09:38.344Z,18.71
2017-08-16T04:10:38.342Z,18.72
2017-08-16T04:11:38.334Z,18.83
2017-08-16T04:12:38.331Z,18.78
2017-08-16T04:13:38.324Z,18.78
2017-08-16T04:14:38.322Z,18.76
2017-08-16T04:15:38.316Z,18.76
2017-08-16T04:16:38.313Z,18.83
2017-08-16T04:17:38.310Z,18.89
2017-08-16T04:18:38.303Z,18.90
2017-08-16T04:19:38.301Z,18.84
2017-08-16T04:20:38.295Z,18.90
2017-08-16T04:21:38.288Z,18.90
2017-08-16T04:22:38.287Z,19.01
2017-08-16T04:23:38.280Z,19.05
2017-08-16T04:24:38.268Z,18.97
2017-08-16T04:25:38.267Z,18.89
2017-08-16T04:26:38.259Z,18.96
2017-08-16T04:27:38.257Z,18.93
2017-08-16T04:28:38.249Z,18.97
2017-08-16T04:29:38.248Z,18.94
2017-08-16T04:30:38.241Z,18.97
2017-08-16T04:31:38.238Z,18.97
2017-08-16T04:32:38.235Z,18.96
2017-08-16T04:33:38.229Z,18.99
2017-08-16T04:34:38.226Z,18.94
2017-08-16T04:35:38.220Z,19.06
2017-08-16T04:36:38.209Z,19.05
2017-08-16T04:37:38.207Z,18.97
2017-08-16T04:38:38.200Z,19.07
2017-08-16T04:39:38.199Z,19.02
2017-08-16T04:40:38.197Z,19.02
2017-08-16T04:41:38.191Z,19.01
2017-08-16T04:42:38.186Z,18.99
2017-08-16T04:43:38.181Z,19.07
2017-08-16T04:44:38.178Z,19.12
2017-08-16T04:45:38.171Z,19.09
2017-08-16T04:46:38.168Z,19.13
2017-08-16T04:47:38.162Z,19.06
2017-08-16T04:48:38.151Z,19.02
2017-08-16T04:49:38.148Z,19.16
2017-08-16T04:50:38.143Z,19.16
2017-08-16T04:51:38.139Z,19.15
2017-08-16T04:52:38.134Z,19.12
2017-08-16T04:53:38.126Z,19.12
2017-08-16T04:54:38.126Z,19.21
2017-08-16T04:55:38.119Z,19.16
2017-08-16T04:56:38.117Z,19.23
2017-08-16T04:57:38.116Z,19.23
2017-08-16T04:58:38.108Z,19.27
2017-08-16T04:59:38.105Z,19.28
2017-08-16T05:00:38.099Z,19.27
2017-08-16T05:01:38.096Z,19.35
2017-08-16T05:02:38.088Z,19.31
2017-08-16T05:03:38.087Z,19.27
2017-08-16T05:04:38.076Z,19.42
2017-08-16T05:05:38.071Z,19.39
2017-08-16T05:06:38.068Z,19.45
2017-08-16T05:07:38.061Z,19.47
2017-08-16T05:08:38.057Z,19.55
2017-08-16T05:09:38.054Z,19.53
2017-08-16T05:10:38.047Z,19.58
2017-08-16T05:11:38.045Z,19.49
2017-08-16T05:12:38.045Z,19.45
2017-08-16T05:13:38.038Z,19.42
2017-08-16T05:14:38.035Z,19.38
2017-08-16T05:15:38.028Z,19.32
2017-08-16T05:16:38.025Z,19.35
2017-08-16T05:17:38.018Z,19.43
2017-08-16T05:18:38.016Z,19.39
2017-08-16T05:19:38.009Z,19.43
2017-08-16T05:20:38.011Z,19.49
2017-08-16T05:21:37.998Z,19.49
2017-08-16T05:22:37.991Z,19.58
2017-08-16T05:23:37.989Z,19.55
2017-08-16T05:24:37.984Z,19.55
2017-08-16T05:25:37.977Z,19.55
2017-08-16T05:26:37.976Z,19.58
2017-08-16T05:27:37.969Z,19.70
2017-08-16T05:28:37.968Z,19.70
2017-08-16T05:29:37.964Z,19.70
2017-08-16T05:30:37.958Z,19.71
2017-08-16T05:31:37.957Z,19.65
2017-08-16T05:32:37.949Z,19.72
2017-08-16T05:33:37.946Z,19.76
2017-08-16T05:34:37.941Z,19.83
2017-08-16T05:35:37.939Z,19.76
2017-08-16T05:36:37.928Z,19.92
2017-08-16T05:37:37.923Z,19.90
2017-08-16T05:38:37.922Z,19.95
2017-08-16T05:39:37.914Z,19.97
2017-08-16T05:40:37.913Z,20.07
2017-08-16T05:41:37.917Z,20.13
2017-08-16T05:42:37.906Z,20.19
2017-08-16T05:43:37.902Z,20.22
2017-08-16T05:44:37.894Z,20.37
2017-08-16T05:45:37.887Z,20.38
2017-08-16T05:46:37.885Z,20.41
2017-08-16T05:47:37.882Z,20.50
2017-08-16T05:48:37.877Z,20.54
2017-08-16T05:49:37.871Z,20.54
2017-08-16T05:50:37.868Z,20.51
2017-08-16T05:51:37.863Z,20.51
2017-08-16T05:52:37.862Z,20.54
2017-08-16T05:53:37.860Z,20.58
2017-08-16T05:54:37.854Z,20.63
2017-08-16T05:55:37.851Z,20.68
2017-08-16T05:56:37.847Z,20.72
2017-08-16T05:57:37.841Z,20.69
2017-08-16T05:58:37.839Z,20.75
2017-08-16T05:59:37.833Z,20.71
2017-08-16T06:00:37.824Z,20.75
2017-08-16T06:01:37.822Z,20.69
2017-08-16T06:02:37.817Z,20.76
2017-08-16T06:03:37.815Z,20.81
2017-08-16T06:04:37.807Z,20.91
2017-08-16T06:05:37.807Z,21.01
2017-08-16T06:06:37.800Z,21.12
2017-08-16T06:07:37.797Z,21.16
2017-08-16T06:08:37.798Z,21.27
2017-08-16T06:09:37.792Z,21.40
2017-08-16T06:10:37.789Z,21.42
2017-08-16T06:11:37.785Z,21.52
2017-08-16T06:12:37.780Z,21.55
2017-08-16T06:13:37.783Z,21.61
2017-08-16T06:14:37.772Z,21.66
2017-08-16T06:15:37.772Z,21.68
2017-08-16T06:16:37.761Z,21.70
2017-08-16T06:17:37.757Z,21.89
2017-08-16T06:18:37.756Z,21.91
2017-08-16T06:19:37.748Z,21.96
2017-08-16T06:20:37.747Z,21.89
2017-08-16T06:21:37.742Z,21.94
2017-08-16T06:22:37.740Z,22.09
2017-08-16T06:23:37.734Z,22.14
2017-08-16T06:24:37.735Z,22.19
2017-08-16T06:25:37.734Z,22.24
2017-08-16T06:26:37.729Z,22.17
2017-08-16T06:27:37.727Z,22.20
2017-08-16T06:28:37.722Z,22.24
2017-08-16T06:29:37.719Z,22.29
2017-08-16T06:30:37.717Z,22.15
2017-08-16T06:31:37.712Z,22.21
2017-08-16T06:32:38.054Z,22.20
2017-08-16T06:33:37.703Z,22.21
2017-08-16T06:34:37.697Z,22.21
2017-08-16T06:35:37.695Z,22.30
2017-08-16T06:36:37.691Z,22.36
2017-08-16T06:37:37.690Z,22.39
2017-08-16T06:38:37.683Z,22.42
2017-08-16T06:39:37.683Z,22.45
2017-08-16T06:40:37.683Z,22.51
2017-08-16T06:41:37.679Z,22.67
2017-08-16T06:42:37.678Z,22.85
2017-08-16T06:43:37.673Z,23.14
2017-08-16T06:44:37.671Z,23.26
2017-08-16T06:45:37.662Z,23.37
2017-08-16T06:46:37.661Z,23.53
2017-08-16T06:47:37.657Z,23.74
2017-08-16T06:48:37.656Z,23.77
2017-08-16T06:49:37.657Z,23.97
2017-08-16T06:50:37.657Z,24.18
2017-08-16T06:51:37.651Z,24.56
2017-08-16T06:52:37.644Z,24.93
2017-08-16T06:53:37.644Z,25.39
2017-08-16T06:54:37.640Z,25.83
2017-08-16T06:55:37.641Z,25.83
2017-08-16T06:56:37.633Z,25.78
2017-08-16T06:57:37.629Z,25.49
2017-08-16T06:58:37.628Z,25.44
2017-08-16T06:59:37.623Z,25.53
2017-08-16T07:00:37.623Z,25.60
2017-08-16T07:01:37.622Z,25.98
2017-08-16T07:02:37.644Z,26.54
2017-08-16T07:03:37.618Z,26.97
2017-08-16T07:04:37.618Z,27.39
2017-08-16T07:05:37.616Z,27.62
2017-08-16T07:06:37.617Z,27.93
2017-08-16T07:07:37.613Z,28.17
2017-08-16T07:08:37.613Z,28.30
2017-08-16T07:09:37.610Z,28.27
2017-08-16T07:10:37.611Z,28.35
2017-08-16T07:11:37.608Z,28.48
2017-08-16T07:12:37.601Z,28.77
2017-08-16T07:13:37.603Z,30.28
2017-08-16T07:14:37.599Z,30.68
2017-08-16T07:15:37.602Z,31.27
2017-08-16T07:16:37.601Z,33.59
2017-08-16T07:17:37.598Z,37.02
2017-08-16T07:18:37.599Z,39.94
2017-08-16T07:19:37.602Z,41.07
2017-08-16T07:20:37.602Z,42.19
2017-08-16T07:21:37.604Z,43.45
2017-08-16T07:22:37.604Z,44.66
2017-08-16T07:23:37.607Z,44.69
2017-08-16T07:24:37.608Z,45.11
2017-08-16T07:25:37.611Z,45.58
2017-08-16T07:26:37.613Z,45.69
2017-08-16T07:27:37.618Z,44.46
2017-08-16T07:28:37.616Z,43.10
2017-08-16T07:29:37.618Z,43.82
2017-08-16T07:30:37.626Z,44.69
2017-08-16T07:31:37.629Z,45.42
2017-08-16T07:32:37.631Z,46.23
2017-08-16T07:33:37.638Z,46.37
2017-08-16T07:34:37.640Z,47.18
2017-08-16T07:35:37.648Z,47.79
2017-08-16T07:36:37.659Z,47.76
2017-08-16T07:37:37.662Z,47.79
2017-08-16T07:38:37.670Z,47.56
2017-08-16T07:39:37.676Z,47.47
2017-08-16T07:40:37.683Z,48.02
2017-08-16T07:41:37.689Z,47.94
2017-08-16T07:42:37.699Z,46.08
2017-08-16T07:43:37.704Z,44.53
2017-08-16T07:44:37.710Z,44.47
2017-08-16T07:45:37.718Z,44.81
2017-08-16T07:46:37.722Z,43.20
2017-08-16T07:47:37.820Z,41.48
2017-08-16T07:48:37.744Z,40.10
2017-08-16T07:49:37.750Z,39.00
2017-08-16T07:50:37.763Z,37.97
2017-08-16T07:51:37.768Z,36.75
2017-08-16T07:52:37.799Z,35.49
2017-08-16T07:53:37.781Z,34.60
2017-08-16T07:54:37.788Z,33.70
2017-08-16T07:55:37.797Z,33.07
2017-08-16T07:56:37.802Z,32.58
2017-08-16T07:57:37.810Z,32.10
2017-08-16T07:58:37.820Z,31.75
2017-08-16T07:59:37.826Z,31.59
2017-08-16T08:00:37.835Z,32.47
2017-08-16T08:01:37.840Z,34.65
2017-08-16T08:02:37.848Z,34.05
2017-08-16T08:03:37.853Z,33.84
2017-08-16T08:04:37.862Z,34.21
2017-08-16T08:05:37.871Z,35.40
2017-08-16T08:06:37.868Z,36.41
2017-08-16T08:07:37.876Z,36.13
2017-08-16T08:08:37.877Z,36.38
2017-08-16T08:09:37.880Z,35.95
2017-08-16T08:10:37.888Z,35.40
2017-08-16T08:11:37.893Z,35.12
2017-08-16T08:12:37.900Z,35.13
2017-08-16T08:13:37.903Z,35.28
2017-08-16T08:14:37.909Z,36.89
2017-08-16T08:15:37.913Z,40.21
2017-08-16T08:16:37.921Z,42.65
2017-08-16T08:17:37.928Z,44.30
2017-08-16T08:18:37.932Z,44.84
2017-08-16T08:19:37.941Z,46.11
2017-08-16T08:20:37.946Z,47.90
2017-08-16T08:21:37.950Z,48.77
2017-08-16T08:22:37.959Z,49.65
2017-08-16T08:23:37.964Z,49.68
2017-08-16T08:24:38.052Z,49.88
2017-08-16T08:25:37.976Z,49.42
2017-08-16T08:26:37.983Z,46.98
2017-08-16T08:27:37.993Z,44.70
2017-08-16T08:28:37.998Z,42.67
2017-08-16T08:29:38.009Z,41.09
2017-08-16T08:30:38.016Z,40.09
2017-08-16T08:31:38.028Z,39.27
2017-08-16T08:32:38.042Z,38.44
2017-08-16T08:33:38.053Z,40.16
2017-08-16T08:34:38.059Z,43.40
2017-08-16T08:35:38.065Z,45.83
2017-08-16T08:36:38.075Z,47.69
2017-08-16T08:37:38.088Z,49.12
2017-08-16T08:38:38.092Z,49.49
2017-08-16T08:39:38.105Z,48.93
2017-08-16T08:40:38.110Z,49.65
2017-08-16T08:41:38.119Z,50.47
2017-08-16T08:42:38.131Z,50.67
2017-08-16T08:43:38.140Z,46.70
2017-08-16T08:44:38.151Z,43.50
2017-08-16T08:45:38.161Z,41.48
2017-08-16T08:46:38.174Z,41.70
2017-08-16T08:47:38.183Z,42.52
2017-08-16T08:48:38.197Z,41.28
2017-08-16T08:49:38.209Z,40.29
2017-08-16T08:50:38.220Z,39.47
2017-08-16T08:51:38.235Z,39.20
2017-08-16T08:52:38.242Z,40.04
2017-08-16T08:53:38.247Z,41.14
2017-08-16T08:54:38.262Z,43.55
2017-08-16T08:55:38.269Z,46.01
2017-08-16T08:56:38.283Z,48.26
2017-08-16T08:57:38.294Z,49.15
2017-08-16T08:58:38.303Z,50.15
2017-08-16T08:59:38.316Z,50.70
2017-08-16T09:00:38.324Z,50.98
2017-08-16T09:01:38.338Z,51.93
2017-08-16T09:02:38.347Z,52.92
2017-08-16T09:03:38.362Z,52.56
2017-08-16T09:04:38.367Z,52.79
2017-08-16T09:05:38.377Z,52.79
2017-08-16T09:06:38.393Z,53.43
2017-08-16T09:07:38.403Z,54.54
2017-08-16T09:08:38.417Z,54.93
2017-08-16T09:09:38.433Z,55.18
2017-08-16T09:10:38.447Z,55.59
2017-08-16T09:11:38.461Z,55.64
2017-08-16T09:12:38.479Z,55.33
2017-08-16T09:13:38.491Z,53.24
2017-08-16T09:14:38.507Z,52.49
2017-08-16T09:15:38.520Z,49.40
2017-08-16T09:16:38.536Z,46.58
2017-08-16T09:17:38.549Z,44.69
2017-08-16T09:18:38.565Z,43.01
2017-08-16T09:19:38.580Z,41.53
2017-08-16T09:20:38.588Z,40.41
2017-08-16T09:21:38.609Z,39.87
2017-08-16T09:22:38.617Z,39.85
2017-08-16T09:23:38.634Z,39.34
2017-08-16T09:24:38.647Z,39.09
2017-08-16T09:25:38.659Z,39.12
2017-08-16T09:26:38.674Z,39.12
2017-08-16T09:27:38.685Z,39.65
2017-08-16T09:28:38.700Z,41.33
2017-08-16T09:29:38.714Z,44.51
2017-08-16T09:30:38.724Z,47.31
2017-08-16T09:31:38.739Z,49.58
2017-08-16T09:32:38.748Z,50.96
2017-08-16T09:33:38.762Z,51.27
2017-08-16T09:34:38.772Z,51.26
2017-08-16T09:35:38.787Z,51.27
2017-08-16T09:36:38.794Z,49.96
2017-08-16T09:37:38.804Z,47.98
2017-08-16T09:38:38.819Z,45.75
2017-08-16T09:39:38.829Z,43.77
2017-08-16T09:40:38.840Z,42.54
2017-08-16T09:41:38.856Z,41.60
2017-08-16T09:42:38.869Z,42.48
2017-08-16T09:43:38.883Z,45.17
2017-08-16T09:44:38.959Z,46.71
2017-08-16T09:45:38.909Z,48.62
2017-08-16T09:46:38.923Z,50.31
2017-08-16T09:47:38.934Z,51.74
2017-08-16T09:48:38.947Z,52.20
2017-08-16T09:49:38.958Z,50.91
2017-08-16T09:50:38.972Z,52.01
2017-08-16T09:51:38.987Z,52.79
2017-08-16T09:52:38.992Z,52.51
2017-08-16T09:53:39.007Z,49.47
2017-08-16T09:54:39.020Z,49.32
2017-08-16T09:55:39.035Z,50.07
2017-08-16T09:56:39.053Z,50.72
2017-08-16T09:57:39.063Z,50.43
2017-08-16T09:58:39.080Z,49.16
2017-08-16T09:59:39.093Z,49.46
2017-08-16T10:00:39.100Z,50.25
2017-08-16T10:01:39.117Z,51.08
2017-08-16T10:02:39.130Z,51.62
2017-08-16T10:03:39.159Z,52.34
2017-08-16T10:04:39.155Z,51.34
2017-08-16T10:05:39.171Z,50.31
2017-08-16T10:06:39.184Z,50.73
2017-08-16T10:07:39.202Z,50.80
2017-08-16T10:08:39.217Z,50.51
2017-08-16T10:09:39.230Z,50.77
2017-08-16T10:10:39.247Z,50.79
2017-08-16T10:11:39.259Z,51.07
2017-08-16T10:12:39.273Z,50.57
2017-08-16T10:13:39.290Z,50.03
2017-08-16T10:14:39.304Z,49.21
2017-08-16T10:15:39.319Z,49.69
2017-08-16T10:16:39.331Z,49.37
2017-08-16T10:17:39.343Z,49.62
2017-08-16T10:18:39.360Z,50.12
2017-08-16T10:19:39.373Z,51.57
2017-08-16T10:20:39.390Z,52.34
2017-08-16T10:21:39.403Z,52.79
2017-08-16T10:22:39.424Z,52.72
2017-08-16T10:23:39.433Z,52.61
2017-08-16T10:24:39.453Z,51.97
2017-08-16T10:25:39.470Z,51.85
2017-08-16T10:26:39.482Z,50.45
2017-08-16T10:27:39.501Z,50.22
2017-08-16T10:28:39.514Z,50.48
2017-08-16T10:29:39.529Z,50.04
2017-08-16T10:30:39.549Z,48.45
2017-08-16T10:31:39.559Z,50.34
2017-08-16T10:32:39.569Z,52.68
2017-08-16T10:33:39.590Z,54.15
2017-08-16T10:34:39.600Z,50.99
2017-08-16T10:35:39.618Z,50.42
2017-08-16T10:36:39.630Z,50.23
2017-08-16T10:37:39.646Z,50.23
2017-08-16T10:38:39.661Z,49.65
2017-08-16T10:39:39.678Z,50.42
2017-08-16T10:40:39.695Z,51.29
2017-08-16T10:41:39.710Z,51.88
2017-08-16T10:42:39.726Z,52.94
2017-08-16T10:43:39.739Z,53.73
2017-08-16T10:44:39.757Z,53.18
2017-08-16T10:45:39.770Z,52.45
2017-08-16T10:46:39.784Z,50.99
2017-08-16T10:47:39.801Z,49.66
2017-08-16T10:48:39.810Z,49.62
2017-08-16T10:49:39.825Z,50.02
2017-08-16T10:50:39.841Z,50.00
2017-08-16T10:51:39.860Z,48.45
2017-08-16T10:52:39.872Z,45.39
2017-08-16T10:53:39.885Z,48.05
2017-08-16T10:54:39.901Z,51.43
2017-08-16T10:55:39.914Z,51.36
2017-08-16T10:56:39.934Z,50.18
2017-08-16T10:57:39.950Z,51.96
2017-08-16T10:58:39.962Z,48.63
2017-08-16T10:59:39.982Z,45.50
2017-08-16T11:00:40.069Z,48.09
2017-08-16T11:01:40.008Z,50.45
2017-08-16T11:02:40.021Z,48.23
2017-08-16T11:03:40.038Z,47.95
2017-08-16T11:04:40.047Z,48.72
2017-08-16T11:05:40.058Z,48.35
2017-08-16T11:06:40.076Z,46.02
2017-08-16T11:07:40.092Z,43.22
2017-08-16T11:08:40.101Z,41.26
2017-08-16T11:09:40.114Z,40.03
2017-08-16T11:10:40.140Z,38.81
2017-08-16T11:11:40.141Z,38.21
2017-08-16T11:12:40.157Z,37.49
2017-08-16T11:13:40.171Z,36.91
2017-08-16T11:14:40.183Z,36.94
2017-08-16T11:15:40.198Z,37.09
2017-08-16T11:16:40.209Z,37.08
2017-08-16T11:17:40.219Z,36.69
2017-08-16T11:18:40.231Z,36.46
2017-08-16T11:19:40.241Z,36.21
2017-08-16T11:20:40.247Z,35.42
2017-08-16T11:21:40.260Z,34.15
2017-08-16T11:22:40.268Z,33.87
2017-08-16T11:23:40.280Z,37.15
2017-08-16T11:24:40.287Z,36.96
2017-08-16T11:25:40.299Z,37.35
2017-08-16T11:26:40.306Z,36.56
2017-08-16T11:27:40.319Z,35.52
2017-08-16T11:28:40.329Z,35.54
2017-08-16T11:29:40.334Z,35.64
2017-08-16T11:30:40.345Z,35.15
2017-08-16T11:31:40.351Z,34.45
2017-08-16T11:32:40.358Z,34.34
2017-08-16T11:33:40.366Z,33.63
2017-08-16T11:34:40.373Z,33.00
2017-08-16T11:35:40.381Z,33.11
2017-08-16T11:36:40.382Z,33.74
2017-08-16T11:37:40.389Z,34.56
2017-08-16T11:38:40.396Z,34.72
2017-08-16T11:39:40.400Z,34.81
2017-08-16T11:40:40.408Z,34.94
2017-08-16T11:41:40.412Z,35.05
2017-08-16T11:42:40.420Z,34.37
2017-08-16T11:43:40.424Z,33.29
2017-08-16T11:44:40.434Z,32.91
2017-08-16T11:45:40.444Z,33.17
2017-08-16T11:46:40.446Z,33.53
2017-08-16T11:47:40.452Z,33.75
2017-08-16T11:48:40.457Z,33.82
2017-08-16T11:49:40.460Z,34.08
2017-08-16T11:50:40.468Z,34.73
2017-08-16T11:51:40.471Z,34.83
2017-08-16T11:52:40.472Z,34.46
2017-08-16T11:53:40.479Z,34.93
2017-08-16T11:54:40.483Z,35.03
2017-08-16T11:55:40.489Z,34.99
2017-08-16T11:56:40.491Z,35.03
2017-08-16T11:57:40.497Z,35.10
2017-08-16T11:58:40.501Z,34.91
2017-08-16T11:59:40.514Z,34.83
2017-08-16T12:00:40.516Z,34.61
2017-08-16T12:01:40.519Z,34.33
2017-08-16T12:02:40.525Z,34.18
2017-08-16T12:03:40.530Z,34.08
2017-08-16T12:04:40.528Z,33.99
2017-08-16T12:05:40.534Z,33.84
2017-08-16T12:06:40.538Z,33.68
2017-08-16T12:07:40.545Z,33.89
2017-08-16T12:08:40.553Z,33.74
2017-08-16T12:09:40.555Z,33.70
2017-08-16T12:10:40.561Z,33.57
2017-08-16T12:11:40.564Z,33.34
2017-08-16T12:12:40.569Z,33.59
2017-08-16T12:13:40.575Z,33.74
2017-08-16T12:14:40.579Z,33.77
2017-08-16T12:15:40.582Z,33.43
2017-08-16T12:16:40.581Z,33.56
2017-08-16T12:17:40.587Z,33.63
2017-08-16T12:18:40.589Z,33.86
2017-08-16T12:19:40.597Z,34.06
2017-08-16T12:20:40.600Z,34.12
2017-08-16T12:21:40.602Z,34.31
2017-08-16T12:22:40.608Z,34.42
2017-08-16T12:23:40.609Z,34.33
2017-08-16T12:24:40.618Z,34.36
2017-08-16T12:25:40.625Z,34.46
2017-08-16T12:26:40.627Z,34.24
2017-08-16T12:27:40.632Z,34.21
2017-08-16T12:28:40.634Z,34.03
2017-08-16T12:29:40.641Z,34.27
2017-08-16T12:30:40.643Z,34.53
2017-08-16T12:31:40.649Z,34.05
2017-08-16T12:32:40.650Z,33.99
2017-08-16T12:33:40.655Z,33.96
2017-08-16T12:34:40.658Z,34.28
2017-08-16T12:35:40.660Z,33.45
2017-08-16T12:36:40.731Z,32.80
2017-08-16T12:37:40.689Z,32.59
2017-08-16T12:38:40.889Z,32.85
2017-08-16T12:39:40.678Z,33.31
2017-08-16T12:40:40.686Z,33.71
2017-08-16T12:41:41.941Z,33.74
2017-08-16T12:42:40.731Z,33.74
2017-08-16T12:46:40.750Z,33.55
2017-08-16T12:47:40.736Z,33.66
2017-08-16T12:48:40.717Z,33.74
2017-08-16T12:49:40.743Z,33.86
2017-08-16T12:50:40.744Z,33.81
2017-08-16T12:51:40.722Z,33.82
2017-08-16T12:52:40.728Z,33.55
2017-08-16T12:53:40.729Z,33.29
2017-08-16T12:54:40.759Z,33.31
2017-08-16T12:55:40.738Z,33.29